Maunaloa, HI

9:56 PM HST on February 08, 2016 (GMT -1000)
Molokai | | Change Station
CLOSE
Current Station
Airport
Location: Molokai,
Elevation: 449 ft
Nearby Weather Stations
Active Advisory: High Surf Advisory Active Notice: Record Report

Elev 449 ft 21.15 °N, 157.10 °W | Updated 1 hour ago

Clear
Clear
65 °F
Feels Like 65 °F
N
8
Wind Variable Wind from NE

Today
High -- | Low -- °F
--% Chance of Precip.
Yesterday
High -- | Low -- °F
Precip. -- in
Pressure 30.05 in
Visibility 10.0 miles
Clouds Clear
Dew Point 52 °F
Humidity 63%
Rainfall 0.00 in
Snow Depth Not available.
7:02 AM 6:23 PM
New Moon, 1% visible
METAR PHMK 090654Z AUTO 04007KT 10SM CLR 18/11 A3003 RMK AO2 SLP175 T01830111 TSNO
Pressure 30.05 in
Visibility 10.0 miles
Clouds Clear
Dew Point 52 °F
Humidity 63%
Rainfall 0.00 in
Snow Depth Not available.
7:02 AM 6:23 PM
New Moon, 1% visible
METAR PHMK 090654Z AUTO 04007KT 10SM CLR 18/11 A3003 RMK AO2 SLP175 T01830111 TSNO

10-Day Weather Forecast

Almanac

Astronomy

Feb. 08, 2016 Rise Set
Actual Time
Civil Twilight
Nautical Twilight
Astronomical Twilight
Moon
Length of Visible Light
Length of Day
Tomorrow will be .
, % of the Moon is Illuminated

Today's Extremes

State Highs State Lows

Community

WunderPhotos

Upload Photos

1,891,571 photos uploaded!

WunderBlog® & News

Nearby

Air Quality

  Air Quality AQ Index Pollutant
Not available.

Snow Depth

Station Depth Elevation

Earthquake Activity

City Distance Mag. Time & Date
Minimum magnitude displayed is 2.5.

Coastal Water Temperatures

Place Temperature

Stations

Nearby Weather Stations

Station Location Temp. Windchill Dew Point Humidity Wind Precip. Elev Updated Type
                   

Watches & Warnings

High Surf Advisory
Issued: 3:53 PM HST Feb. 8, 2016 – National Weather Service

... High surf advisory remains in effect until 6 am HST Tuesday...

* surf... along north facing shores of Niihau and Kauai... 14 to 18
ft... and along north facing shores of Oahu Molokai and Maui... 12
to 16 feet.

* Timing... through 6 am HST Tuesday.

* Impacts... moderate... expect strong breaking waves... shore
break... and strong longshore and rip currents making swimming
difficult and dangerous.

Precautionary/preparedness actions...

Beachgoers... swimmers... and surfers should heed all advice given
by ocean safety officials and exercise caution.



Wroe